createdAt,value
2024-02-16T00:01:56.678Z,80.42
2024-02-16T00:04:50.682Z,80.40
2024-02-16T00:07:45.024Z,80.64
2024-02-16T00:10:41.740Z,80.79
2024-02-16T00:13:35.342Z,80.73
2024-02-16T00:16:28.986Z,80.87
2024-02-16T00:19:23.542Z,81.03
2024-02-16T00:22:17.762Z,81.01
2024-02-16T00:25:14.036Z,81.01
2024-02-16T00:28:08.636Z,81.09
2024-02-16T00:31:01.858Z,81.16
2024-02-16T00:33:55.428Z,81.16
2024-02-16T00:36:49.120Z,81.18
2024-02-16T00:39:43.246Z,81.29
2024-02-16T00:42:37.408Z,81.42
2024-02-16T00:45:31.050Z,81.50
2024-02-16T00:48:25.593Z,81.44
2024-02-16T00:51:19.948Z,81.31
2024-02-16T00:54:14.081Z,81.30
2024-02-16T00:57:08.197Z,81.37
2024-02-16T01:00:01.616Z,81.47
2024-02-16T01:02:56.114Z,81.45
2024-02-16T01:05:49.953Z,81.55
2024-02-16T01:08:43.967Z,81.70
2024-02-16T01:11:37.661Z,81.79
2024-02-16T01:14:31.378Z,81.81
2024-02-16T01:17:24.930Z,81.83
2024-02-16T01:20:19.179Z,81.86
2024-02-16T01:23:12.885Z,81.80
2024-02-16T01:26:07.273Z,81.73
2024-02-16T01:29:00.786Z,81.70
2024-02-16T01:31:54.342Z,81.79
2024-02-16T01:34:50.993Z,81.96
2024-02-16T01:37:45.082Z,81.98
2024-02-16T01:40:38.411Z,81.91
2024-02-16T01:43:32.716Z,81.81
2024-02-16T01:46:27.505Z,81.90
2024-02-16T01:49:21.421Z,81.99
2024-02-16T01:52:15.538Z,81.99
2024-02-16T01:55:11.563Z,82.01
2024-02-16T01:58:06.778Z,81.97
2024-02-16T02:01:00.281Z,82.10
2024-02-16T02:03:53.867Z,82.05
2024-02-16T02:06:47.447Z,81.90
2024-02-16T02:09:41.164Z,81.79
2024-02-16T02:12:35.401Z,81.73
2024-02-16T02:15:29.288Z,81.70
2024-02-16T02:18:23.634Z,81.72
2024-02-16T02:21:19.288Z,81.73
2024-02-16T02:24:13.329Z,81.82
2024-02-16T02:27:07.576Z,81.86
2024-02-16T02:30:01.337Z,81.70
2024-02-16T02:32:55.670Z,81.70
2024-02-16T02:35:49.987Z,81.61
2024-02-16T02:38:45.766Z,81.64
2024-02-16T02:41:39.752Z,81.57
2024-02-16T02:44:33.743Z,81.62
2024-02-16T02:47:27.559Z,81.63
2024-02-16T02:50:22.000Z,81.74
2024-02-16T02:53:15.596Z,81.77
2024-02-16T02:56:10.727Z,81.89
2024-02-16T02:59:05.823Z,81.97
2024-02-16T03:01:59.519Z,82.01
2024-02-16T03:04:53.191Z,82.10
2024-02-16T03:07:47.008Z,82.03
2024-02-16T03:10:40.598Z,82.08
2024-02-16T03:13:35.588Z,82.00
2024-02-16T03:16:30.090Z,82.02
2024-02-16T03:19:24.049Z,81.99
2024-02-16T03:22:17.846Z,81.99
2024-02-16T03:25:12.702Z,82.21
2024-02-16T03:28:07.116Z,82.24
2024-02-16T03:31:00.853Z,82.30
2024-02-16T03:33:55.701Z,82.28
2024-02-16T03:36:49.818Z,82.17
2024-02-16T03:39:43.450Z,82.21
2024-02-16T03:42:37.708Z,82.20
2024-02-16T03:45:31.360Z,82.33
2024-02-16T03:48:25.553Z,82.36
2024-02-16T03:51:19.196Z,82.30
2024-02-16T03:54:12.829Z,82.38
2024-02-16T03:57:10.446Z,82.40
2024-02-16T04:00:06.966Z,82.32
2024-02-16T04:03:06.190Z,82.40
2024-02-16T04:06:00.979Z,82.40
2024-02-16T04:08:55.025Z,82.47
2024-02-16T04:11:50.780Z,82.30
2024-02-16T04:14:46.133Z,82.35
2024-02-16T04:17:40.370Z,82.42
2024-02-16T04:20:34.902Z,82.49
2024-02-16T04:23:28.440Z,82.61
2024-02-16T04:26:22.411Z,82.52
2024-02-16T04:29:16.120Z,82.63
2024-02-16T04:32:11.296Z,82.70
2024-02-16T04:35:05.568Z,82.88
2024-02-16T04:37:59.434Z,82.90
2024-02-16T04:40:53.562Z,83.02
2024-02-16T04:43:47.154Z,83.09
2024-02-16T04:46:41.016Z,83.19
2024-02-16T04:49:35.170Z,83.24
2024-02-16T04:52:30.980Z,83.30
2024-02-16T04:55:25.256Z,83.33
2024-02-16T04:58:18.733Z,83.27
2024-02-16T05:01:12.495Z,83.27
2024-02-16T05:04:08.017Z,83.23
2024-02-16T05:07:01.922Z,83.10
2024-02-16T05:09:59.732Z,83.06
2024-02-16T05:12:53.679Z,83.09
2024-02-16T05:15:48.854Z,83.13
2024-02-16T05:18:42.696Z,83.10
2024-02-16T05:21:36.620Z,83.10
2024-02-16T05:24:30.204Z,83.22
2024-02-16T05:27:23.976Z,83.20
2024-02-16T05:30:18.488Z,83.12
2024-02-16T05:33:12.054Z,83.08
2024-02-16T05:36:06.246Z,83.03
2024-02-16T05:39:11.031Z,82.95
2024-02-16T05:42:05.464Z,83.03
2024-02-16T05:44:59.416Z,82.98
2024-02-16T05:47:53.982Z,82.98
2024-02-16T05:50:49.134Z,83.08
2024-02-16T05:53:42.940Z,83.16
2024-02-16T05:56:38.301Z,83.22
2024-02-16T05:59:32.099Z,83.26
2024-02-16T06:02:27.140Z,83.30
2024-02-16T06:05:21.847Z,83.53
2024-02-16T06:08:16.705Z,83.60
2024-02-16T06:11:14.066Z,83.59
2024-02-16T06:14:07.741Z,83.54
2024-02-16T06:17:01.521Z,83.50
2024-02-16T06:19:55.288Z,83.45
2024-02-16T06:22:49.374Z,83.37
2024-02-16T06:25:43.316Z,83.38
2024-02-16T06:28:37.131Z,83.41
2024-02-16T06:31:31.476Z,83.47
2024-02-16T06:34:25.140Z,83.38
2024-02-16T06:37:18.910Z,83.51
2024-02-16T06:40:14.520Z,83.54
2024-02-16T06:43:08.384Z,83.51
2024-02-16T06:46:01.735Z,83.72
2024-02-16T06:48:57.865Z,83.87
2024-02-16T06:51:51.789Z,83.89
2024-02-16T06:54:45.558Z,83.94
2024-02-16T06:57:38.921Z,83.98
2024-02-16T07:00:33.101Z,84.00
2024-02-16T07:03:26.904Z,83.87
2024-02-16T07:06:20.548Z,83.71
2024-02-16T07:09:15.710Z,83.57
2024-02-16T07:12:13.822Z,83.44
2024-02-16T07:15:09.864Z,83.36
2024-02-16T07:18:05.568Z,83.13
2024-02-16T07:21:00.258Z,82.83
2024-02-16T07:23:54.650Z,82.62
2024-02-16T07:26:48.329Z,82.00
2024-02-16T07:29:41.992Z,81.77
2024-02-16T07:32:35.840Z,81.22
2024-02-16T07:35:29.525Z,80.31
2024-02-16T07:38:24.344Z,79.71
2024-02-16T07:41:18.179Z,78.86
2024-02-16T07:44:12.399Z,77.72
2024-02-16T07:47:06.308Z,77.06
2024-02-16T07:49:59.896Z,76.14
2024-02-16T07:52:54.722Z,75.53
2024-02-16T07:55:48.680Z,74.25
2024-02-16T07:58:43.238Z,73.25
2024-02-16T08:01:36.776Z,72.87
2024-02-16T08:04:30.611Z,71.46
2024-02-16T08:07:24.207Z,70.30
2024-02-16T08:10:22.037Z,70.48
2024-02-16T08:13:15.569Z,70.29
2024-02-16T08:16:10.091Z,69.73
2024-02-16T08:19:04.053Z,69.02
2024-02-16T08:21:57.725Z,68.51
2024-02-16T08:24:51.485Z,68.10
2024-02-16T08:27:44.980Z,67.92
2024-02-16T08:30:42.337Z,67.00
2024-02-16T08:33:38.478Z,66.58
2024-02-16T08:36:32.373Z,66.75
2024-02-16T08:39:26.673Z,66.93
2024-02-16T08:42:20.490Z,66.57
2024-02-16T08:45:14.721Z,66.54
2024-02-16T08:48:09.737Z,66.79
2024-02-16T08:51:03.708Z,65.79
2024-02-16T08:53:57.665Z,65.86
2024-02-16T08:56:52.000Z,65.75
2024-02-16T08:59:46.885Z,65.21
2024-02-16T09:02:40.182Z,64.98
2024-02-16T09:05:34.378Z,64.59
2024-02-16T09:08:30.259Z,63.44
2024-02-16T09:11:24.559Z,63.88
2024-02-16T09:14:17.850Z,63.66
2024-02-16T09:17:11.640Z,64.31
2024-02-16T09:20:09.710Z,64.12
2024-02-16T09:23:04.838Z,64.35
2024-02-16T09:25:58.505Z,64.76
2024-02-16T09:28:52.460Z,64.34
2024-02-16T09:31:45.930Z,64.52
2024-02-16T09:34:41.691Z,63.72
2024-02-16T09:37:36.917Z,63.77
2024-02-16T09:40:30.821Z,64.18
2024-02-16T09:43:32.345Z,64.06
2024-02-16T09:46:27.565Z,63.86
2024-02-16T09:49:28.964Z,64.05
2024-02-16T09:52:29.342Z,64.33
2024-02-16T09:55:23.552Z,64.42
2024-02-16T09:58:18.801Z,64.22
2024-02-16T10:01:22.728Z,64.67
2024-02-16T10:04:16.924Z,64.20
2024-02-16T10:07:13.108Z,64.38
2024-02-16T10:10:16.837Z,65.19
2024-02-16T10:13:12.825Z,66.24
2024-02-16T10:16:15.210Z,66.21
2024-02-16T10:19:14.578Z,66.29
2024-02-16T10:22:15.161Z,66.11
2024-02-16T10:25:15.528Z,66.21
2024-02-16T10:28:12.641Z,66.19
2024-02-16T10:31:06.761Z,66.45
2024-02-16T10:34:07.009Z,66.36
2024-02-16T10:37:03.644Z,66.51
2024-02-16T10:39:59.158Z,66.34
2024-02-16T10:42:55.163Z,66.14
2024-02-16T10:45:53.815Z,66.11
2024-02-16T10:48:47.712Z,66.21
2024-02-16T10:51:47.418Z,66.06
2024-02-16T10:54:43.138Z,65.89
2024-02-16T10:57:41.173Z,65.97
2024-02-16T11:00:36.005Z,65.71
2024-02-16T11:03:30.942Z,65.41
2024-02-16T11:06:26.312Z,65.48
2024-02-16T11:09:32.277Z,65.58
2024-02-16T11:12:26.985Z,65.69
2024-02-16T11:15:29.424Z,64.93
2024-02-16T11:18:23.493Z,65.02
2024-02-16T11:21:20.295Z,65.04
2024-02-16T11:24:17.537Z,65.18
2024-02-16T11:27:12.347Z,64.93
2024-02-16T11:30:09.032Z,65.11
2024-02-16T11:33:02.463Z,64.71
2024-02-16T11:36:02.110Z,65.01
2024-02-16T11:38:56.262Z,64.83
2024-02-16T11:41:49.931Z,64.99
2024-02-16T11:44:52.741Z,64.93
2024-02-16T11:47:47.033Z,64.90
2024-02-16T11:50:40.914Z,64.62
2024-02-16T11:53:35.527Z,64.31
2024-02-16T11:56:31.139Z,64.16
2024-02-16T11:59:26.429Z,63.73
2024-02-16T12:02:26.834Z,63.90
2024-02-16T12:05:20.942Z,63.76
2024-02-16T12:08:14.745Z,63.68
2024-02-16T12:11:09.927Z,63.51
2024-02-16T12:14:03.782Z,63.03
2024-02-16T12:17:01.266Z,63.62
2024-02-16T12:19:56.697Z,63.71
2024-02-16T12:22:50.634Z,63.58
2024-02-16T12:25:44.182Z,63.33
2024-02-16T12:28:38.528Z,63.53
2024-02-16T12:31:33.854Z,62.96
2024-02-16T12:34:27.843Z,62.85
2024-02-16T12:37:21.610Z,63.39
2024-02-16T12:40:16.076Z,63.40
2024-02-16T12:43:12.381Z,62.96
2024-02-16T12:46:06.202Z,63.13
2024-02-16T12:48:59.888Z,62.95
2024-02-16T12:51:53.629Z,62.92
2024-02-16T12:54:48.000Z,62.69
2024-02-16T12:57:41.989Z,62.70
2024-02-16T13:00:35.906Z,62.58
2024-02-16T13:03:29.507Z,62.25
2024-02-16T13:06:26.845Z,62.04
2024-02-16T13:09:22.467Z,62.23
2024-02-16T13:12:17.464Z,62.34
2024-02-16T13:15:23.028Z,62.62
2024-02-16T13:18:22.156Z,62.28
2024-02-16T13:21:21.444Z,62.11
2024-02-16T13:24:14.881Z,61.77
2024-02-16T13:27:10.071Z,62.10
2024-02-16T13:30:03.928Z,62.21
2024-02-16T13:32:57.517Z,62.09
2024-02-16T13:35:51.469Z,61.91
2024-02-16T13:38:45.476Z,61.96
2024-02-16T13:41:39.538Z,61.80
2024-02-16T13:44:33.130Z,61.95
2024-02-16T13:47:27.818Z,61.82
2024-02-16T13:50:21.717Z,61.65
2024-02-16T13:53:18.640Z,61.11
2024-02-16T13:56:15.234Z,61.45
2024-02-16T13:59:09.310Z,61.39
2024-02-16T14:02:03.563Z,61.14
2024-02-16T14:04:57.829Z,61.45
2024-02-16T14:07:58.208Z,61.32
2024-02-16T14:10:54.567Z,61.34
2024-02-16T14:13:48.390Z,60.81
2024-02-16T14:16:42.478Z,60.73
2024-02-16T14:19:38.936Z,60.93
2024-02-16T14:22:32.569Z,60.48
2024-02-16T14:25:27.002Z,60.01
2024-02-16T14:28:20.264Z,60.82
2024-02-16T14:31:15.410Z,61.37
2024-02-16T14:34:10.327Z,61.45
2024-02-16T14:37:05.522Z,61.67
2024-02-16T14:40:00.444Z,61.76
2024-02-16T14:42:54.028Z,61.81
2024-02-16T14:45:47.604Z,62.11
2024-02-16T14:48:41.984Z,62.16
2024-02-16T14:51:35.457Z,62.36
2024-02-16T14:54:29.107Z,62.41
2024-02-16T14:57:26.200Z,62.60
2024-02-16T15:00:21.915Z,62.84
2024-02-16T15:03:15.687Z,63.07
2024-02-16T15:06:09.971Z,63.14
2024-02-16T15:09:04.582Z,63.28
2024-02-16T15:11:58.406Z,63.42
2024-02-16T15:14:52.205Z,63.67
2024-02-16T15:17:45.680Z,63.76
2024-02-16T15:20:40.044Z,63.91
2024-02-16T15:23:34.496Z,64.08
2024-02-16T15:26:27.734Z,64.15
2024-02-16T15:29:21.396Z,64.25
2024-02-16T15:32:14.973Z,64.37
2024-02-16T15:35:09.401Z,64.56
2024-02-16T15:38:04.347Z,64.68
2024-02-16T15:40:57.817Z,64.86
2024-02-16T15:43:51.548Z,65.05
2024-02-16T15:46:45.656Z,65.22
2024-02-16T15:49:39.560Z,65.38
2024-02-16T15:52:33.239Z,65.63
2024-02-16T15:55:26.781Z,65.93
2024-02-16T15:58:20.312Z,66.19
2024-02-16T16:01:14.021Z,66.41
2024-02-16T16:04:08.280Z,66.66
2024-02-16T16:07:02.060Z,66.90
2024-02-16T16:09:58.920Z,67.09
2024-02-16T16:12:52.380Z,67.38
2024-02-16T16:15:47.357Z,67.68
2024-02-16T16:18:41.191Z,67.95
2024-02-16T16:21:34.751Z,68.16
2024-02-16T16:24:28.647Z,68.42
2024-02-16T16:27:23.804Z,68.76
2024-02-16T16:30:20.202Z,69.03
2024-02-16T16:33:14.134Z,69.26
2024-02-16T16:36:14.667Z,69.35
2024-02-16T16:39:08.607Z,69.55
2024-02-16T16:42:02.897Z,69.79
2024-02-16T16:44:57.186Z,69.94
2024-02-16T16:47:50.842Z,70.16
2024-02-16T16:50:44.953Z,70.53
2024-02-16T16:53:38.949Z,70.73
2024-02-16T16:56:32.954Z,71.00
2024-02-16T16:59:26.342Z,71.23
2024-02-16T17:02:19.571Z,71.34
2024-02-16T17:05:13.688Z,71.61
2024-02-16T17:08:09.154Z,71.74
2024-02-16T17:11:06.415Z,71.92
2024-02-16T17:14:00.858Z,72.01
2024-02-16T17:16:55.056Z,72.10
2024-02-16T17:19:49.314Z,72.05
2024-02-16T17:22:43.077Z,72.16
2024-02-16T17:25:37.988Z,72.14
2024-02-16T17:28:34.065Z,72.10
2024-02-16T17:31:28.374Z,72.19
2024-02-16T17:34:22.293Z,72.20
2024-02-16T17:37:16.410Z,72.26
2024-02-16T17:40:16.698Z,72.36
2024-02-16T17:43:10.440Z,72.40
2024-02-16T17:46:05.438Z,72.37
2024-02-16T17:48:59.039Z,72.39
2024-02-16T17:51:54.065Z,72.56
2024-02-16T17:54:47.676Z,72.71
2024-02-16T17:57:42.602Z,72.78
2024-02-16T18:00:37.114Z,72.74
2024-02-16T18:03:31.153Z,72.68
2024-02-16T18:06:24.993Z,72.63
2024-02-16T18:09:18.455Z,72.83
2024-02-16T18:12:15.941Z,72.99
2024-02-16T18:15:14.006Z,73.14
2024-02-16T18:18:08.611Z,72.90
2024-02-16T18:21:02.558Z,73.08
2024-02-16T18:23:56.897Z,73.15
2024-02-16T18:26:53.171Z,73.40
2024-02-16T18:29:46.999Z,73.49
2024-02-16T18:32:40.837Z,73.59
2024-02-16T18:35:35.437Z,73.65
2024-02-16T18:38:29.383Z,73.74
2024-02-16T18:41:23.020Z,73.85
2024-02-16T18:44:18.223Z,73.92
2024-02-16T18:47:18.009Z,73.96
2024-02-16T18:50:14.630Z,74.10
2024-02-16T18:53:09.560Z,74.20
2024-02-16T18:56:04.679Z,74.37
2024-02-16T18:58:59.109Z,74.57
2024-02-16T19:01:54.789Z,74.72
2024-02-16T19:04:48.989Z,74.78
2024-02-16T19:07:43.259Z,74.96
2024-02-16T19:10:38.938Z,75.12
2024-02-16T19:13:33.325Z,75.17
2024-02-16T19:16:28.105Z,75.21
2024-02-16T19:19:22.098Z,75.32
2024-02-16T19:22:15.996Z,75.44
2024-02-16T19:25:12.124Z,75.59
2024-02-16T19:28:06.332Z,75.66
2024-02-16T19:31:00.347Z,75.88
2024-02-16T19:33:55.570Z,75.97
2024-02-16T19:36:54.195Z,76.11
2024-02-16T19:39:48.308Z,76.16
2024-02-16T19:42:42.463Z,76.28
2024-02-16T19:45:36.327Z,76.29
2024-02-16T19:48:34.018Z,76.38
2024-02-16T19:51:28.769Z,76.40
2024-02-16T19:54:23.319Z,76.56
2024-02-16T19:57:23.072Z,76.71
2024-02-16T20:00:20.323Z,77.01
2024-02-16T20:03:14.437Z,77.24
2024-02-16T20:06:09.626Z,77.42
2024-02-16T20:09:08.701Z,77.61
2024-02-16T20:12:08.644Z,77.67
2024-02-16T20:15:02.686Z,77.64
2024-02-16T20:17:57.845Z,77.75
2024-02-16T20:20:52.334Z,77.79
2024-02-16T20:23:47.729Z,77.82
2024-02-16T20:26:42.080Z,77.91
2024-02-16T20:29:35.831Z,77.99
2024-02-16T20:32:32.847Z,78.24
2024-02-16T20:35:27.023Z,78.48
2024-02-16T20:38:20.856Z,78.65
2024-02-16T20:41:14.759Z,78.61
2024-02-16T20:44:09.225Z,78.75
2024-02-16T20:47:03.732Z,78.84
2024-02-16T20:49:58.099Z,78.93
2024-02-16T20:52:52.417Z,78.96
2024-02-16T20:55:46.211Z,79.07
2024-02-16T20:58:41.543Z,79.19
2024-02-16T21:01:36.378Z,79.20
2024-02-16T21:04:37.919Z,79.14
2024-02-16T21:07:32.149Z,79.33
2024-02-16T21:10:26.539Z,79.47
2024-02-16T21:13:21.765Z,79.47
2024-02-16T21:16:15.639Z,79.50
2024-02-16T21:19:10.254Z,79.60
2024-02-16T21:22:04.142Z,79.73
2024-02-16T21:24:58.309Z,79.90
2024-02-16T21:27:52.292Z,80.00
2024-02-16T21:30:46.249Z,80.08
2024-02-16T21:33:40.209Z,80.09
2024-02-16T21:36:34.221Z,80.10
2024-02-16T21:39:28.627Z,80.17
2024-02-16T21:42:23.391Z,80.16
2024-02-16T21:45:19.931Z,80.21
2024-02-16T21:48:22.398Z,80.20
2024-02-16T21:51:20.017Z,80.18
2024-02-16T21:54:14.307Z,80.37
2024-02-16T21:57:08.893Z,80.47
2024-02-16T22:00:02.692Z,80.40
2024-02-16T22:02:58.928Z,80.42
2024-02-16T22:05:53.218Z,80.49
2024-02-16T22:08:47.083Z,80.59
2024-02-16T22:11:41.656Z,80.58
2024-02-16T22:14:35.244Z,80.62
2024-02-16T22:17:29.067Z,80.61
2024-02-16T22:20:23.784Z,80.69
2024-02-16T22:23:17.488Z,80.70
2024-02-16T22:26:12.501Z,80.59
2024-02-16T22:29:06.497Z,80.63
2024-02-16T22:32:11.486Z,80.65
2024-02-16T22:35:11.792Z,80.62
2024-02-16T22:38:05.234Z,80.80
2024-02-16T22:40:59.148Z,80.84
2024-02-16T22:43:53.732Z,80.87
2024-02-16T22:46:47.291Z,80.99
2024-02-16T22:49:40.908Z,81.01
2024-02-16T22:52:35.106Z,81.09
2024-02-16T22:55:29.224Z,81.12
2024-02-16T22:58:23.034Z,81.12
2024-02-16T23:01:17.049Z,81.12
2024-02-16T23:04:10.966Z,81.10
2024-02-16T23:07:06.475Z,81.07
2024-02-16T23:09:59.953Z,81.06
2024-02-16T23:12:53.853Z,81.17
2024-02-16T23:15:47.486Z,81.30
2024-02-16T23:18:43.876Z,81.28
2024-02-16T23:21:37.446Z,81.32
2024-02-16T23:24:30.977Z,81.50
2024-02-16T23:27:24.596Z,81.50
2024-02-16T23:30:20.107Z,81.43
2024-02-16T23:33:14.591Z,81.38
2024-02-16T23:36:09.387Z,81.33
2024-02-16T23:39:02.914Z,81.31
2024-02-16T23:41:56.482Z,81.40
2024-02-16T23:44:49.870Z,81.49
2024-02-16T23:47:45.241Z,81.44
2024-02-16T23:50:39.072Z,81.49
2024-02-16T23:53:32.214Z,81.62
2024-02-16T23:56:28.463Z,81.71
2024-02-16T23:59:22.449Z,81.70
